To NAV CANADA Home Page Login to a new session Search on AWWS site Feedback and Comments Disclaimer Vers la page française équivalente Tips FAQ What's new on the site To the Forecasts and Observations / NOTAM section To "File a Flight Plan" website Publications and other links Update of the User's profile FIC Telephone Numbers My Weather Data Folder Route Weather Data Regional Weather Data Local Weather Data To the Forecasts and Observations / NOTAM section
Request Generated 08/30/2016 at 18:45:04 UTC . Weather information available at that time is displayed.

METAR/TAF

MONT-JOLI/QC    

METAR CYYY 301800Z 36006KT 290V020 25SM FEW040 17/10 A2998 RMK CU2
SLP156 DENSITY ALT 400FT=
METAR CYYY 301700Z VRB04KT 30SM FEW060 SCT120 17/10 A3000 RMK SC2AC1
SLP160 DENSITY ALT 300FT=
METAR CYYY 301600Z 36006KT 330V070 30SM FEW060 SCT080 18/13 A3001 RMK
SC1AC3 SLP164 DENSITY ALT 400FT=

TAF CYYY 301338Z 3014/3102 07005KT P6SM BKN060
BECMG 3016/3018 04010KT
FM302000 04010KT P6SM BKN080 TEMPO 3020/3101 P6SM -SHRA
BECMG 3023/3101 VRB03KT
RMK NXT FCST BY 302000Z=
Your time UTC time
Weather data provided by Environment Canada and NAV CANADA